YDFD weather

Dexfield Park
Wauchope, New South Wales, Australia

Public forecast

Using degrees Celsius for public forecast. Weather courtesy of forecast.io.

Closest aviation weather report (METAR) to Dexfield Park

Closest report is Port Macquarie Airport, 5.4 nm (10.1 km) E. Retrieved 2019/10/17 14:34 UTC (25 minutes ago):

YPMQ 171434Z AUTO 00000KT 6000 // NCD 13/12 Q1014

Closest aviation forecast (TAF) to Dexfield Park

Closest forecast is Taree Airport, 30.7 nm (56.8 km) SSW. Retrieved 2019/10/17 14:03 UTC (56 minutes ago):

TAF YTRE 171254Z 1714/1802 27005KT CAVOK FM172300 20010KT CAVOK